sensor_id;sensor_type;location;lat;lon;timestamp;P1;durP1;ratioP1;P2;durP2;ratioP2
69392;SDS011;56582;44.624;20.378;2024-03-02T00:00:28;11.93;;;7.63;;
69392;SDS011;56582;44.624;20.378;2024-03-02T00:02:53;11.17;;;7.20;;
69392;SDS011;56582;44.624;20.378;2024-03-02T00:05:22;14.48;;;8.57;;
69392;SDS011;56582;44.624;20.378;2024-03-02T00:07:55;15.00;;;9.05;;
69392;SDS011;56582;44.624;20.378;2024-03-02T00:10:22;15.68;;;8.95;;
69392;SDS011;56582;44.624;20.378;2024-03-02T00:12:56;14.20;;;8.77;;
69392;SDS011;56582;44.624;20.378;2024-03-02T00:18:14;14.32;;;8.25;;
69392;SDS011;56582;44.624;20.378;2024-03-02T00:20:44;13.25;;;8.27;;
69392;SDS011;56582;44.624;20.378;2024-03-02T00:23:12;12.13;;;8.52;;
69392;SDS011;56582;44.624;20.378;2024-03-02T00:25:41;15.77;;;8.50;;
69392;SDS011;56582;44.624;20.378;2024-03-02T00:28:29;16.35;;;8.82;;
69392;SDS011;56582;44.624;20.378;2024-03-02T00:31:11;13.75;;;8.40;;
69392;SDS011;56582;44.624;20.378;2024-03-02T00:36:08;14.10;;;8.73;;
69392;SDS011;56582;44.624;20.378;2024-03-02T00:38:34;12.57;;;7.67;;
69392;SDS011;56582;44.624;20.378;2024-03-02T00:41:25;13.80;;;8.18;;
69392;SDS011;56582;44.624;20.378;2024-03-02T00:44:12;14.27;;;9.60;;
69392;SDS011;56582;44.624;20.378;2024-03-02T00:46:38;14.48;;;9.05;;
69392;SDS011;56582;44.624;20.378;2024-03-02T00:49:25;14.63;;;8.02;;
69392;SDS011;56582;44.624;20.378;2024-03-02T00:51:54;14.63;;;9.03;;
69392;SDS011;56582;44.624;20.378;2024-03-02T00:54:20;14.70;;;8.43;;
69392;SDS011;56582;44.624;20.378;2024-03-02T00:56:49;14.48;;;8.40;;
69392;SDS011;56582;44.624;20.378;2024-03-02T00:59:15;14.23;;;9.27;;
69392;SDS011;56582;44.624;20.378;2024-03-02T01:01:40;14.03;;;8.80;;
69392;SDS011;56582;44.624;20.378;2024-03-02T01:04:07;14.35;;;8.32;;
69392;SDS011;56582;44.624;20.378;2024-03-02T01:06:33;14.73;;;8.03;;
69392;SDS011;56582;44.624;20.378;2024-03-02T01:08:59;14.48;;;9.48;;
69392;SDS011;56582;44.624;20.378;2024-03-02T01:11:25;15.43;;;9.23;;
69392;SDS011;56582;44.624;20.378;2024-03-02T01:13:53;14.33;;;8.37;;
69392;SDS011;56582;44.624;20.378;2024-03-02T01:16:19;13.52;;;7.85;;
69392;SDS011;56582;44.624;20.378;2024-03-02T01:18:45;13.60;;;9.25;;
69392;SDS011;56582;44.624;20.378;2024-03-02T01:21:11;12.10;;;7.80;;
69392;SDS011;56582;44.624;20.378;2024-03-02T01:23:36;15.40;;;8.80;;
69392;SDS011;56582;44.624;20.378;2024-03-02T01:26:10;14.73;;;8.47;;
69392;SDS011;56582;44.624;20.378;2024-03-02T01:28:35;13.38;;;8.23;;
69392;SDS011;56582;44.624;20.378;2024-03-02T01:31:01;13.67;;;8.77;;
69392;SDS011;56582;44.624;20.378;2024-03-02T01:33:27;12.68;;;8.75;;
69392;SDS011;56582;44.624;20.378;2024-03-02T01:35:52;13.18;;;8.05;;
69392;SDS011;56582;44.624;20.378;2024-03-02T01:38:18;14.17;;;8.17;;
69392;SDS011;56582;44.624;20.378;2024-03-02T01:40:44;12.73;;;7.85;;
69392;SDS011;56582;44.624;20.378;2024-03-02T01:43:10;12.07;;;7.60;;
69392;SDS011;56582;44.624;20.378;2024-03-02T01:45:35;13.10;;;8.65;;
69392;SDS011;56582;44.624;20.378;2024-03-02T01:48:03;13.82;;;8.98;;
69392;SDS011;56582;44.624;20.378;2024-03-02T01:50:33;13.27;;;8.00;;
69392;SDS011;56582;44.624;20.378;2024-03-02T01:52:59;14.77;;;9.30;;
69392;SDS011;56582;44.624;20.378;2024-03-02T01:55:25;13.70;;;8.50;;
69392;SDS011;56582;44.624;20.378;2024-03-02T01:57:52;13.68;;;8.60;;
69392;SDS011;56582;44.624;20.378;2024-03-02T02:00:19;15.20;;;8.27;;
69392;SDS011;56582;44.624;20.378;2024-03-02T02:02:45;12.87;;;8.83;;
69392;SDS011;56582;44.624;20.378;2024-03-02T02:05:13;13.20;;;8.25;;
69392;SDS011;56582;44.624;20.378;2024-03-02T02:07:42;12.27;;;7.80;;
69392;SDS011;56582;44.624;20.378;2024-03-02T02:10:08;11.80;;;7.68;;
69392;SDS011;56582;44.624;20.378;2024-03-02T02:12:36;11.02;;;7.10;;
69392;SDS011;56582;44.624;20.378;2024-03-02T02:15:02;15.17;;;7.80;;
69392;SDS011;56582;44.624;20.378;2024-03-02T02:17:28;13.52;;;7.28;;
69392;SDS011;56582;44.624;20.378;2024-03-02T02:19:54;9.32;;;6.03;;
69392;SDS011;56582;44.624;20.378;2024-03-02T02:22:20;10.87;;;6.60;;
69392;SDS011;56582;44.624;20.378;2024-03-02T02:24:46;13.00;;;7.43;;
69392;SDS011;56582;44.624;20.378;2024-03-02T02:27:11;12.27;;;6.50;;
69392;SDS011;56582;44.624;20.378;2024-03-02T02:29:40;13.43;;;7.07;;
69392;SDS011;56582;44.624;20.378;2024-03-02T02:32:06;12.23;;;7.95;;
69392;SDS011;56582;44.624;20.378;2024-03-02T02:34:31;11.75;;;6.97;;
69392;SDS011;56582;44.624;20.378;2024-03-02T02:36:57;10.10;;;5.87;;
69392;SDS011;56582;44.624;20.378;2024-03-02T02:39:22;9.63;;;6.40;;
69392;SDS011;56582;44.624;20.378;2024-03-02T02:41:48;10.32;;;6.45;;
69392;SDS011;56582;44.624;20.378;2024-03-02T02:44:14;9.83;;;7.03;;
69392;SDS011;56582;44.624;20.378;2024-03-02T02:46:39;9.73;;;6.55;;
69392;SDS011;56582;44.624;20.378;2024-03-02T02:49:06;8.33;;;5.43;;
69392;SDS011;56582;44.624;20.378;2024-03-02T02:51:31;8.48;;;5.85;;
69392;SDS011;56582;44.624;20.378;2024-03-02T02:53:57;7.63;;;6.00;;
69392;SDS011;56582;44.624;20.378;2024-03-02T02:56:23;7.30;;;4.80;;
69392;SDS011;56582;44.624;20.378;2024-03-02T02:58:48;7.73;;;5.50;;
69392;SDS011;56582;44.624;20.378;2024-03-02T03:01:17;7.95;;;6.00;;
69392;SDS011;56582;44.624;20.378;2024-03-02T03:03:43;8.00;;;4.60;;
69392;SDS011;56582;44.624;20.378;2024-03-02T03:06:09;7.30;;;4.40;;
69392;SDS011;56582;44.624;20.378;2024-03-02T03:08:35;7.97;;;5.57;;
69392;SDS011;56582;44.624;20.378;2024-03-02T03:11:00;7.63;;;5.50;;
69392;SDS011;56582;44.624;20.378;2024-03-02T03:13:26;8.68;;;5.28;;
69392;SDS011;56582;44.624;20.378;2024-03-02T03:15:52;7.67;;;5.63;;
69392;SDS011;56582;44.624;20.378;2024-03-02T03:18:17;8.52;;;5.18;;
69392;SDS011;56582;44.624;20.378;2024-03-02T03:20:46;8.18;;;5.85;;
69392;SDS011;56582;44.624;20.378;2024-03-02T03:23:12;6.87;;;4.70;;
69392;SDS011;56582;44.624;20.378;2024-03-02T03:25:40;8.40;;;6.07;;
69392;SDS011;56582;44.624;20.378;2024-03-02T03:28:07;7.43;;;4.95;;
69392;SDS011;56582;44.624;20.378;2024-03-02T03:30:35;9.23;;;6.17;;
69392;SDS011;56582;44.624;20.378;2024-03-02T03:33:02;8.50;;;5.43;;
69392;SDS011;56582;44.624;20.378;2024-03-02T03:35:27;7.57;;;5.15;;
69392;SDS011;56582;44.624;20.378;2024-03-02T03:37:53;7.83;;;6.07;;
69392;SDS011;56582;44.624;20.378;2024-03-02T03:40:18;9.27;;;5.87;;
69392;SDS011;56582;44.624;20.378;2024-03-02T03:42:44;8.98;;;6.15;;
69392;SDS011;56582;44.624;20.378;2024-03-02T03:45:10;7.90;;;5.73;;
69392;SDS011;56582;44.624;20.378;2024-03-02T03:47:35;11.47;;;6.73;;
69392;SDS011;56582;44.624;20.378;2024-03-02T03:50:01;9.75;;;5.95;;
69392;SDS011;56582;44.624;20.378;2024-03-02T03:52:29;8.90;;;5.57;;
69392;SDS011;56582;44.624;20.378;2024-03-02T03:54:55;9.13;;;6.10;;
69392;SDS011;56582;44.624;20.378;2024-03-02T03:57:20;9.40;;;6.30;;
69392;SDS011;56582;44.624;20.378;2024-03-02T03:59:46;8.35;;;5.78;;
69392;SDS011;56582;44.624;20.378;2024-03-02T04:02:11;9.43;;;6.03;;
69392;SDS011;56582;44.624;20.378;2024-03-02T04:04:38;9.38;;;5.63;;
69392;SDS011;56582;44.624;20.378;2024-03-02T04:07:03;9.60;;;6.30;;
69392;SDS011;56582;44.624;20.378;2024-03-02T04:09:29;8.40;;;5.70;;
69392;SDS011;56582;44.624;20.378;2024-03-02T04:11:54;9.33;;;5.50;;
69392;SDS011;56582;44.624;20.378;2024-03-02T04:14:20;9.70;;;6.03;;
69392;SDS011;56582;44.624;20.378;2024-03-02T04:16:45;11.60;;;6.33;;
69392;SDS011;56582;44.624;20.378;2024-03-02T04:19:11;10.73;;;7.43;;
69392;SDS011;56582;44.624;20.378;2024-03-02T04:21:37;10.15;;;6.55;;
69392;SDS011;56582;44.624;20.378;2024-03-02T04:24:02;10.63;;;6.80;;
69392;SDS011;56582;44.624;20.378;2024-03-02T04:26:28;9.95;;;6.20;;
69392;SDS011;56582;44.624;20.378;2024-03-02T04:28:54;10.10;;;6.50;;
69392;SDS011;56582;44.624;20.378;2024-03-02T04:31:19;9.67;;;6.23;;
69392;SDS011;56582;44.624;20.378;2024-03-02T04:33:45;9.90;;;6.40;;
69392;SDS011;56582;44.624;20.378;2024-03-02T04:36:11;9.83;;;6.27;;
69392;SDS011;56582;44.624;20.378;2024-03-02T04:38:37;8.35;;;5.68;;
69392;SDS011;56582;44.624;20.378;2024-03-02T04:41:04;10.85;;;6.53;;
69392;SDS011;56582;44.624;20.378;2024-03-02T04:43:31;8.87;;;5.80;;
69392;SDS011;56582;44.624;20.378;2024-03-02T04:45:57;10.38;;;6.22;;
69392;SDS011;56582;44.624;20.378;2024-03-02T04:48:23;9.10;;;5.88;;
69392;SDS011;56582;44.624;20.378;2024-03-02T04:50:49;9.27;;;6.40;;
69392;SDS011;56582;44.624;20.378;2024-03-02T04:53:15;9.45;;;6.30;;
69392;SDS011;56582;44.624;20.378;2024-03-02T04:55:40;10.60;;;6.83;;
69392;SDS011;56582;44.624;20.378;2024-03-02T04:58:06;9.98;;;5.88;;
69392;SDS011;56582;44.624;20.378;2024-03-02T05:00:32;9.23;;;5.40;;
69392;SDS011;56582;44.624;20.378;2024-03-02T05:02:58;9.32;;;6.50;;
69392;SDS011;56582;44.624;20.378;2024-03-02T05:05:23;9.20;;;5.40;;
69392;SDS011;56582;44.624;20.378;2024-03-02T05:07:49;8.50;;;5.15;;
69392;SDS011;56582;44.624;20.378;2024-03-02T05:10:14;9.27;;;6.13;;
69392;SDS011;56582;44.624;20.378;2024-03-02T05:12:40;9.63;;;5.45;;
69392;SDS011;56582;44.624;20.378;2024-03-02T05:15:06;7.88;;;4.30;;
69392;SDS011;56582;44.624;20.378;2024-03-02T05:17:38;8.00;;;4.60;;
69392;SDS011;56582;44.624;20.378;2024-03-02T05:20:05;6.05;;;4.25;;
69392;SDS011;56582;44.624;20.378;2024-03-02T05:22:32;7.47;;;5.50;;
69392;SDS011;56582;44.624;20.378;2024-03-02T05:24:59;7.45;;;5.00;;
69392;SDS011;56582;44.624;20.378;2024-03-02T05:27:26;6.50;;;4.68;;
69392;SDS011;56582;44.624;20.378;2024-03-02T05:29:51;8.07;;;4.40;;
69392;SDS011;56582;44.624;20.378;2024-03-02T05:32:17;6.03;;;4.40;;
69392;SDS011;56582;44.624;20.378;2024-03-02T05:34:42;7.90;;;4.27;;
69392;SDS011;56582;44.624;20.378;2024-03-02T05:37:08;7.53;;;5.87;;
69392;SDS011;56582;44.624;20.378;2024-03-02T05:39:33;7.78;;;4.15;;
69392;SDS011;56582;44.624;20.378;2024-03-02T05:41:59;7.77;;;5.17;;
69392;SDS011;56582;44.624;20.378;2024-03-02T05:44:24;8.57;;;6.13;;
69392;SDS011;56582;44.624;20.378;2024-03-02T05:46:50;6.85;;;5.28;;
69392;SDS011;56582;44.624;20.378;2024-03-02T05:49:15;7.37;;;4.43;;
69392;SDS011;56582;44.624;20.378;2024-03-02T05:51:41;6.77;;;4.20;;
69392;SDS011;56582;44.624;20.378;2024-03-02T05:54:07;6.25;;;4.22;;
69392;SDS011;56582;44.624;20.378;2024-03-02T05:56:32;7.23;;;4.47;;
69392;SDS011;56582;44.624;20.378;2024-03-02T05:58:58;7.37;;;4.90;;
69392;SDS011;56582;44.624;20.378;2024-03-02T06:01:39;6.50;;;5.30;;
69392;SDS011;56582;44.624;20.378;2024-03-02T06:04:05;6.55;;;4.47;;
69392;SDS011;56582;44.624;20.378;2024-03-02T06:06:30;6.30;;;3.95;;
69392;SDS011;56582;44.624;20.378;2024-03-02T06:08:59;5.78;;;3.78;;
69392;SDS011;56582;44.624;20.378;2024-03-02T06:11:30;7.50;;;5.00;;
69392;SDS011;56582;44.624;20.378;2024-03-02T06:13:56;9.40;;;7.10;;
69392;SDS011;56582;44.624;20.378;2024-03-02T06:16:21;9.00;;;5.83;;
69392;SDS011;56582;44.624;20.378;2024-03-02T06:18:47;5.40;;;4.03;;
69392;SDS011;56582;44.624;20.378;2024-03-02T06:21:12;5.63;;;4.20;;
69392;SDS011;56582;44.624;20.378;2024-03-02T06:23:38;6.13;;;4.37;;
69392;SDS011;56582;44.624;20.378;2024-03-02T06:26:03;5.65;;;3.80;;
69392;SDS011;56582;44.624;20.378;2024-03-02T06:28:29;6.10;;;4.33;;
69392;SDS011;56582;44.624;20.378;2024-03-02T06:30:54;6.37;;;4.47;;
69392;SDS011;56582;44.624;20.378;2024-03-02T06:33:20;5.28;;;3.10;;
69392;SDS011;56582;44.624;20.378;2024-03-02T06:35:45;4.80;;;3.90;;
69392;SDS011;56582;44.624;20.378;2024-03-02T06:38:11;5.17;;;3.20;;
69392;SDS011;56582;44.624;20.378;2024-03-02T06:40:36;5.83;;;4.10;;
69392;SDS011;56582;44.624;20.378;2024-03-02T06:43:05;6.25;;;3.65;;
69392;SDS011;56582;44.624;20.378;2024-03-02T06:45:31;5.20;;;3.43;;
69392;SDS011;56582;44.624;20.378;2024-03-02T06:47:58;4.43;;;2.92;;
69392;SDS011;56582;44.624;20.378;2024-03-02T06:50:24;5.20;;;3.10;;
69392;SDS011;56582;44.624;20.378;2024-03-02T06:52:50;5.22;;;3.30;;
69392;SDS011;56582;44.624;20.378;2024-03-02T06:55:15;9.23;;;5.57;;
69392;SDS011;56582;44.624;20.378;2024-03-02T06:57:41;5.90;;;4.80;;
69392;SDS011;56582;44.624;20.378;2024-03-02T07:00:06;5.70;;;4.40;;
69392;SDS011;56582;44.624;20.378;2024-03-02T07:02:34;5.38;;;3.65;;
69392;SDS011;56582;44.624;20.378;2024-03-02T07:05:01;4.82;;;2.95;;
69392;SDS011;56582;44.624;20.378;2024-03-02T07:07:27;4.93;;;3.53;;
69392;SDS011;56582;44.624;20.378;2024-03-02T07:09:52;5.38;;;4.25;;
69392;SDS011;56582;44.624;20.378;2024-03-02T07:12:18;4.50;;;3.03;;
69392;SDS011;56582;44.624;20.378;2024-03-02T07:14:43;6.57;;;4.27;;
69392;SDS011;56582;44.624;20.378;2024-03-02T07:17:27;7.85;;;5.00;;
69392;SDS011;56582;44.624;20.378;2024-03-02T07:19:53;6.05;;;3.92;;
69392;SDS011;56582;44.624;20.378;2024-03-02T07:22:19;7.90;;;5.23;;
69392;SDS011;56582;44.624;20.378;2024-03-02T07:24:44;8.45;;;5.30;;
69392;SDS011;56582;44.624;20.378;2024-03-02T07:27:13;19.77;;;11.82;;
69392;SDS011;56582;44.624;20.378;2024-03-02T07:29:39;6.43;;;3.93;;
69392;SDS011;56582;44.624;20.378;2024-03-02T07:32:05;4.35;;;2.95;;
69392;SDS011;56582;44.624;20.378;2024-03-02T07:34:34;4.90;;;3.83;;
69392;SDS011;56582;44.624;20.378;2024-03-02T07:36:59;4.57;;;3.47;;
69392;SDS011;56582;44.624;20.378;2024-03-02T07:39:25;5.22;;;3.95;;
69392;SDS011;56582;44.624;20.378;2024-03-02T07:41:51;4.80;;;3.80;;
69392;SDS011;56582;44.624;20.378;2024-03-02T07:44:17;4.80;;;4.00;;
69392;SDS011;56582;44.624;20.378;2024-03-02T07:46:44;4.97;;;3.30;;
69392;SDS011;56582;44.624;20.378;2024-03-02T07:49:20;7.32;;;5.32;;
69392;SDS011;56582;44.624;20.378;2024-03-02T07:51:45;4.83;;;3.57;;
69392;SDS011;56582;44.624;20.378;2024-03-02T07:54:11;4.77;;;3.27;;
69392;SDS011;56582;44.624;20.378;2024-03-02T07:56:36;4.43;;;3.38;;
69392;SDS011;56582;44.624;20.378;2024-03-02T07:59:02;5.43;;;3.27;;
69392;SDS011;56582;44.624;20.378;2024-03-02T08:01:28;5.82;;;4.07;;
69392;SDS011;56582;44.624;20.378;2024-03-02T08:03:57;4.60;;;3.45;;
69392;SDS011;56582;44.624;20.378;2024-03-02T08:06:24;5.53;;;3.33;;
69392;SDS011;56582;44.624;20.378;2024-03-02T08:08:53;5.32;;;4.03;;
69392;SDS011;56582;44.624;20.378;2024-03-02T08:11:20;5.33;;;3.60;;
69392;SDS011;56582;44.624;20.378;2024-03-02T08:13:45;7.30;;;5.93;;
69392;SDS011;56582;44.624;20.378;2024-03-02T08:16:11;7.88;;;5.15;;
69392;SDS011;56582;44.624;20.378;2024-03-02T08:18:37;6.17;;;3.87;;
69392;SDS011;56582;44.624;20.378;2024-03-02T08:21:02;4.97;;;2.87;;
69392;SDS011;56582;44.624;20.378;2024-03-02T08:23:28;7.72;;;4.25;;
69392;SDS011;56582;44.624;20.378;2024-03-02T08:25:55;6.43;;;3.53;;
69392;SDS011;56582;44.624;20.378;2024-03-02T08:28:20;5.07;;;3.72;;
69392;SDS011;56582;44.624;20.378;2024-03-02T08:30:46;6.53;;;3.92;;
69392;SDS011;56582;44.624;20.378;2024-03-02T08:33:11;4.90;;;3.33;;
69392;SDS011;56582;44.624;20.378;2024-03-02T08:35:37;7.23;;;4.80;;
69392;SDS011;56582;44.624;20.378;2024-03-02T08:38:02;6.10;;;4.30;;
69392;SDS011;56582;44.624;20.378;2024-03-02T08:40:29;6.43;;;5.03;;
69392;SDS011;56582;44.624;20.378;2024-03-02T08:42:55;6.50;;;4.47;;
69392;SDS011;56582;44.624;20.378;2024-03-02T08:45:21;5.93;;;3.70;;
69392;SDS011;56582;44.624;20.378;2024-03-02T08:47:46;13.47;;;7.67;;
69392;SDS011;56582;44.624;20.378;2024-03-02T08:50:12;38.15;;;12.00;;
69392;SDS011;56582;44.624;20.378;2024-03-02T08:52:38;8.57;;;4.10;;
69392;SDS011;56582;44.624;20.378;2024-03-02T08:55:04;23.42;;;9.95;;
69392;SDS011;56582;44.624;20.378;2024-03-02T08:57:30;10.47;;;5.97;;
69392;SDS011;56582;44.624;20.378;2024-03-02T08:59:56;7.47;;;5.07;;
69392;SDS011;56582;44.624;20.378;2024-03-02T09:02:22;9.70;;;5.10;;
69392;SDS011;56582;44.624;20.378;2024-03-02T09:04:48;9.10;;;6.28;;
69392;SDS011;56582;44.624;20.378;2024-03-02T09:07:14;12.43;;;7.07;;
69392;SDS011;56582;44.624;20.378;2024-03-02T09:09:40;8.18;;;4.97;;
69392;SDS011;56582;44.624;20.378;2024-03-02T09:12:06;6.17;;;4.80;;
69392;SDS011;56582;44.624;20.378;2024-03-02T09:14:32;6.90;;;4.88;;
69392;SDS011;56582;44.624;20.378;2024-03-02T09:16:58;5.95;;;4.47;;
69392;SDS011;56582;44.624;20.378;2024-03-02T09:19:23;7.40;;;4.50;;
69392;SDS011;56582;44.624;20.378;2024-03-02T09:21:49;6.13;;;4.50;;
69392;SDS011;56582;44.624;20.378;2024-03-02T09:24:15;9.77;;;5.50;;
69392;SDS011;56582;44.624;20.378;2024-03-02T09:26:41;6.53;;;4.38;;
69392;SDS011;56582;44.624;20.378;2024-03-02T09:29:06;10.03;;;4.07;;
69392;SDS011;56582;44.624;20.378;2024-03-02T09:31:32;6.87;;;5.37;;
69392;SDS011;56582;44.624;20.378;2024-03-02T09:33:57;6.80;;;4.38;;
69392;SDS011;56582;44.624;20.378;2024-03-02T09:36:23;9.47;;;7.00;;
69392;SDS011;56582;44.624;20.378;2024-03-02T09:38:49;9.70;;;5.55;;
69392;SDS011;56582;44.624;20.378;2024-03-02T09:41:15;10.90;;;6.15;;
69392;SDS011;56582;44.624;20.378;2024-03-02T09:43:41;7.15;;;4.60;;
69392;SDS011;56582;44.624;20.378;2024-03-02T09:46:08;6.63;;;5.20;;
69392;SDS011;56582;44.624;20.378;2024-03-02T09:48:35;9.23;;;5.53;;
69392;SDS011;56582;44.624;20.378;2024-03-02T09:51:01;6.40;;;4.43;;
69392;SDS011;56582;44.624;20.378;2024-03-02T09:53:31;7.10;;;5.10;;
69392;SDS011;56582;44.624;20.378;2024-03-02T09:55:59;8.13;;;4.90;;
69392;SDS011;56582;44.624;20.378;2024-03-02T09:58:25;7.00;;;4.80;;
69392;SDS011;56582;44.624;20.378;2024-03-02T10:00:51;8.02;;;5.55;;
69392;SDS011;56582;44.624;20.378;2024-03-02T10:03:20;6.97;;;5.50;;
69392;SDS011;56582;44.624;20.378;2024-03-02T10:05:47;6.90;;;4.05;;
69392;SDS011;56582;44.624;20.378;2024-03-02T10:08:13;9.85;;;6.50;;
69392;SDS011;56582;44.624;20.378;2024-03-02T10:10:42;8.57;;;3.97;;
69392;SDS011;56582;44.624;20.378;2024-03-02T10:13:10;8.77;;;5.60;;
69392;SDS011;56582;44.624;20.378;2024-03-02T10:15:38;6.72;;;4.72;;
69392;SDS011;56582;44.624;20.378;2024-03-02T10:18:10;9.15;;;6.82;;
69392;SDS011;56582;44.624;20.378;2024-03-02T10:20:39;7.07;;;5.30;;
69392;SDS011;56582;44.624;20.378;2024-03-02T10:23:17;8.23;;;4.73;;
69392;SDS011;56582;44.624;20.378;2024-03-02T10:25:43;7.70;;;4.78;;
69392;SDS011;56582;44.624;20.378;2024-03-02T10:28:10;6.60;;;4.80;;
69392;SDS011;56582;44.624;20.378;2024-03-02T10:30:36;8.55;;;5.32;;
69392;SDS011;56582;44.624;20.378;2024-03-02T10:33:02;10.37;;;5.93;;
69392;SDS011;56582;44.624;20.378;2024-03-02T10:35:30;9.32;;;5.43;;
69392;SDS011;56582;44.624;20.378;2024-03-02T10:37:59;6.93;;;4.25;;
69392;SDS011;56582;44.624;20.378;2024-03-02T10:40:26;7.78;;;3.80;;
69392;SDS011;56582;44.624;20.378;2024-03-02T10:42:52;8.25;;;5.53;;
69392;SDS011;56582;44.624;20.378;2024-03-02T10:45:19;6.77;;;3.97;;
69392;SDS011;56582;44.624;20.378;2024-03-02T10:47:48;13.40;;;5.47;;
69392;SDS011;56582;44.624;20.378;2024-03-02T10:50:15;14.38;;;5.93;;
69392;SDS011;56582;44.624;20.378;2024-03-02T10:52:41;10.68;;;4.80;;
69392;SDS011;56582;44.624;20.378;2024-03-02T10:55:08;8.18;;;5.20;;
69392;SDS011;56582;44.624;20.378;2024-03-02T11:00:14;8.07;;;4.95;;
69392;SDS011;56582;44.624;20.378;2024-03-02T11:02:49;8.13;;;5.35;;
69392;SDS011;56582;44.624;20.378;2024-03-02T11:05:27;8.00;;;4.40;;
69392;SDS011;56582;44.624;20.378;2024-03-02T11:07:57;8.02;;;4.70;;
69392;SDS011;56582;44.624;20.378;2024-03-02T11:10:34;6.33;;;4.17;;
69392;SDS011;56582;44.624;20.378;2024-03-02T11:13:11;8.32;;;5.10;;
69392;SDS011;56582;44.624;20.378;2024-03-02T11:15:39;7.32;;;5.57;;
69392;SDS011;56582;44.624;20.378;2024-03-02T11:18:07;6.90;;;4.60;;
69392;SDS011;56582;44.624;20.378;2024-03-02T11:20:38;8.98;;;4.63;;
69392;SDS011;56582;44.624;20.378;2024-03-02T11:23:05;6.70;;;4.00;;
69392;SDS011;56582;44.624;20.378;2024-03-02T11:25:32;8.63;;;4.25;;
69392;SDS011;56582;44.624;20.378;2024-03-02T11:27:59;6.60;;;4.20;;
69392;SDS011;56582;44.624;20.378;2024-03-02T11:35:40;7.60;;;4.80;;
69392;SDS011;56582;44.624;20.378;2024-03-02T11:38:14;8.18;;;5.07;;
69392;SDS011;56582;44.624;20.378;2024-03-02T11:40:40;7.35;;;4.78;;
69392;SDS011;56582;44.624;20.378;2024-03-02T11:43:07;7.72;;;5.57;;
69392;SDS011;56582;44.624;20.378;2024-03-02T11:45:34;10.23;;;6.40;;
69392;SDS011;56582;44.624;20.378;2024-03-02T11:48:04;8.48;;;4.53;;
69392;SDS011;56582;44.624;20.378;2024-03-02T11:50:50;9.20;;;7.32;;
69392;SDS011;56582;44.624;20.378;2024-03-02T11:53:17;7.43;;;4.60;;
69392;SDS011;56582;44.624;20.378;2024-03-02T11:55:45;10.48;;;5.40;;
69392;SDS011;56582;44.624;20.378;2024-03-02T11:58:14;8.77;;;5.73;;
69392;SDS011;56582;44.624;20.378;2024-03-02T12:00:55;7.50;;;4.80;;
69392;SDS011;56582;44.624;20.378;2024-03-02T12:03:22;8.10;;;4.63;;
69392;SDS011;56582;44.624;20.378;2024-03-02T12:05:50;8.63;;;4.72;;
69392;SDS011;56582;44.624;20.378;2024-03-02T12:08:20;9.00;;;4.70;;
69392;SDS011;56582;44.624;20.378;2024-03-02T12:10:57;7.13;;;4.17;;
69392;SDS011;56582;44.624;20.378;2024-03-02T12:13:23;11.52;;;4.28;;
69392;SDS011;56582;44.624;20.378;2024-03-02T12:15:52;7.72;;;4.40;;
69392;SDS011;56582;44.624;20.378;2024-03-02T12:18:20;8.50;;;4.90;;
69392;SDS011;56582;44.624;20.378;2024-03-02T12:20:46;7.88;;;5.15;;
69392;SDS011;56582;44.624;20.378;2024-03-02T12:23:20;7.80;;;4.53;;
69392;SDS011;56582;44.624;20.378;2024-03-02T12:25:46;7.33;;;4.67;;
69392;SDS011;56582;44.624;20.378;2024-03-02T12:28:13;9.15;;;5.00;;
69392;SDS011;56582;44.624;20.378;2024-03-02T12:30:38;7.97;;;4.95;;
69392;SDS011;56582;44.624;20.378;2024-03-02T12:33:05;8.90;;;4.75;;
69392;SDS011;56582;44.624;20.378;2024-03-02T12:35:30;7.33;;;4.40;;
69392;SDS011;56582;44.624;20.378;2024-03-02T12:37:57;10.25;;;4.10;;
69392;SDS011;56582;44.624;20.378;2024-03-02T12:40:24;7.22;;;4.85;;
69392;SDS011;56582;44.624;20.378;2024-03-02T12:42:50;11.32;;;4.00;;
69392;SDS011;56582;44.624;20.378;2024-03-02T12:45:16;9.00;;;4.85;;
69392;SDS011;56582;44.624;20.378;2024-03-02T12:47:52;8.23;;;3.90;;
69392;SDS011;56582;44.624;20.378;2024-03-02T12:50:17;7.45;;;4.20;;
69392;SDS011;56582;44.624;20.378;2024-03-02T12:52:50;8.88;;;4.60;;
69392;SDS011;56582;44.624;20.378;2024-03-02T12:55:17;8.13;;;5.20;;
69392;SDS011;56582;44.624;20.378;2024-03-02T12:57:43;11.23;;;5.57;;
69392;SDS011;56582;44.624;20.378;2024-03-02T13:00:09;8.75;;;5.00;;
69392;SDS011;56582;44.624;20.378;2024-03-02T13:02:39;6.70;;;3.95;;
69392;SDS011;56582;44.624;20.378;2024-03-02T13:05:06;7.82;;;4.85;;
69392;SDS011;56582;44.624;20.378;2024-03-02T13:07:36;10.50;;;4.37;;
69392;SDS011;56582;44.624;20.378;2024-03-02T13:10:04;8.05;;;4.03;;
69392;SDS011;56582;44.624;20.378;2024-03-02T13:12:32;8.25;;;4.75;;
69392;SDS011;56582;44.624;20.378;2024-03-02T13:15:00;9.77;;;6.03;;
69392;SDS011;56582;44.624;20.378;2024-03-02T13:17:29;9.93;;;5.80;;
69392;SDS011;56582;44.624;20.378;2024-03-02T13:19:55;7.57;;;4.97;;
69392;SDS011;56582;44.624;20.378;2024-03-02T13:22:22;7.40;;;4.05;;
69392;SDS011;56582;44.624;20.378;2024-03-02T13:24:50;9.73;;;4.15;;
69392;SDS011;56582;44.624;20.378;2024-03-02T13:27:17;14.07;;;11.57;;
69392;SDS011;56582;44.624;20.378;2024-03-02T13:29:46;9.25;;;4.72;;
69392;SDS011;56582;44.624;20.378;2024-03-02T13:32:13;8.50;;;5.07;;
69392;SDS011;56582;44.624;20.378;2024-03-02T13:34:40;8.15;;;5.35;;
69392;SDS011;56582;44.624;20.378;2024-03-02T13:37:06;9.82;;;5.82;;
69392;SDS011;56582;44.624;20.378;2024-03-02T13:39:33;10.75;;;6.25;;
69392;SDS011;56582;44.624;20.378;2024-03-02T13:42:09;12.93;;;9.27;;
69392;SDS011;56582;44.624;20.378;2024-03-02T13:44:36;10.63;;;5.20;;
69392;SDS011;56582;44.624;20.378;2024-03-02T13:47:02;11.05;;;5.90;;
69392;SDS011;56582;44.624;20.378;2024-03-02T13:49:29;8.48;;;5.63;;
69392;SDS011;56582;44.624;20.378;2024-03-02T13:52:05;8.43;;;5.93;;
69392;SDS011;56582;44.624;20.378;2024-03-02T13:54:43;7.68;;;5.38;;
69392;SDS011;56582;44.624;20.378;2024-03-02T13:57:11;7.90;;;4.43;;
69392;SDS011;56582;44.624;20.378;2024-03-02T13:59:37;6.78;;;4.82;;
69392;SDS011;56582;44.624;20.378;2024-03-02T14:02:06;10.02;;;4.60;;
69392;SDS011;56582;44.624;20.378;2024-03-02T14:04:34;13.68;;;7.57;;
69392;SDS011;56582;44.624;20.378;2024-03-02T14:07:03;8.38;;;4.95;;
69392;SDS011;56582;44.624;20.378;2024-03-02T14:09:36;11.73;;;6.03;;
69392;SDS011;56582;44.624;20.378;2024-03-02T14:12:02;11.02;;;5.55;;
69392;SDS011;56582;44.624;20.378;2024-03-02T14:14:29;9.38;;;5.10;;
69392;SDS011;56582;44.624;20.378;2024-03-02T14:16:55;8.10;;;4.75;;
69392;SDS011;56582;44.624;20.378;2024-03-02T14:19:26;15.18;;;5.15;;
69392;SDS011;56582;44.624;20.378;2024-03-02T14:21:53;12.43;;;5.00;;
69392;SDS011;56582;44.624;20.378;2024-03-02T14:24:19;11.32;;;5.43;;
69392;SDS011;56582;44.624;20.378;2024-03-02T14:26:48;9.70;;;4.68;;
69392;SDS011;56582;44.624;20.378;2024-03-02T14:29:14;6.77;;;4.30;;
69392;SDS011;56582;44.624;20.378;2024-03-02T14:31:40;19.15;;;4.70;;
69392;SDS011;56582;44.624;20.378;2024-03-02T14:34:05;11.80;;;4.90;;
69392;SDS011;56582;44.624;20.378;2024-03-02T14:36:31;7.85;;;4.13;;
69392;SDS011;56582;44.624;20.378;2024-03-02T14:38:57;11.17;;;3.97;;
69392;SDS011;56582;44.624;20.378;2024-03-02T14:41:23;12.80;;;4.53;;
69392;SDS011;56582;44.624;20.378;2024-03-02T14:43:50;11.30;;;4.07;;